sensor_id;sensor_type;location;lat;lon;timestamp;P1;durP1;ratioP1;P2;durP2;ratioP2
13421;SDS011;6782;55.904;13.396;2023-04-01T00:00:25;3.70;;;3.30;;
13421;SDS011;6782;55.904;13.396;2023-04-01T00:02:52;3.70;;;3.30;;
13421;SDS011;6782;55.904;13.396;2023-04-01T00:05:22;3.93;;;3.60;;
13421;SDS011;6782;55.904;13.396;2023-04-01T00:07:49;3.53;;;3.23;;
13421;SDS011;6782;55.904;13.396;2023-04-01T00:10:16;4.07;;;3.53;;
13421;SDS011;6782;55.904;13.396;2023-04-01T00:12:44;4.10;;;3.60;;
13421;SDS011;6782;55.904;13.396;2023-04-01T00:15:10;4.07;;;3.77;;
13421;SDS011;6782;55.904;13.396;2023-04-01T00:17:37;3.50;;;3.20;;
13421;SDS011;6782;55.904;13.396;2023-04-01T00:20:05;4.63;;;4.10;;
13421;SDS011;6782;55.904;13.396;2023-04-01T00:22:34;4.87;;;4.23;;
13421;SDS011;6782;55.904;13.396;2023-04-01T00:25:01;4.30;;;3.90;;
13421;SDS011;6782;55.904;13.396;2023-04-01T00:27:29;4.60;;;4.20;;
13421;SDS011;6782;55.904;13.396;2023-04-01T00:29:57;5.20;;;4.70;;
13421;SDS011;6782;55.904;13.396;2023-04-01T00:32:24;4.60;;;4.20;;
13421;SDS011;6782;55.904;13.396;2023-04-01T00:34:52;4.87;;;4.37;;
13421;SDS011;6782;55.904;13.396;2023-04-01T00:37:19;4.80;;;4.30;;
13421;SDS011;6782;55.904;13.396;2023-04-01T00:39:47;5.53;;;4.83;;
13421;SDS011;6782;55.904;13.396;2023-04-01T00:42:14;5.20;;;4.70;;
13421;SDS011;6782;55.904;13.396;2023-04-01T00:44:41;4.83;;;4.43;;
13421;SDS011;6782;55.904;13.396;2023-04-01T00:47:09;5.83;;;4.50;;
13421;SDS011;6782;55.904;13.396;2023-04-01T00:49:37;6.13;;;4.57;;
13421;SDS011;6782;55.904;13.396;2023-04-01T00:52:05;4.80;;;4.40;;
13421;SDS011;6782;55.904;13.396;2023-04-01T00:54:33;4.97;;;4.57;;
13421;SDS011;6782;55.904;13.396;2023-04-01T00:57:04;5.37;;;4.87;;
13421;SDS011;6782;55.904;13.396;2023-04-01T00:59:33;6.27;;;4.77;;
13421;SDS011;6782;55.904;13.396;2023-04-01T01:02:02;5.23;;;4.73;;
13421;SDS011;6782;55.904;13.396;2023-04-01T01:04:29;5.10;;;4.70;;
13421;SDS011;6782;55.904;13.396;2023-04-01T01:07:00;6.43;;;5.17;;
13421;SDS011;6782;55.904;13.396;2023-04-01T01:09:30;6.07;;;5.47;;
13421;SDS011;6782;55.904;13.396;2023-04-01T01:12:00;6.67;;;5.23;;
13421;SDS011;6782;55.904;13.396;2023-04-01T01:14:34;4.87;;;4.37;;
13421;SDS011;6782;55.904;13.396;2023-04-01T01:17:05;5.93;;;5.00;;
13421;SDS011;6782;55.904;13.396;2023-04-01T01:22:26;5.40;;;4.90;;
13421;SDS011;6782;55.904;13.396;2023-04-01T01:25:00;5.87;;;4.93;;
13421;SDS011;6782;55.904;13.396;2023-04-01T01:27:34;5.23;;;4.63;;
13421;SDS011;6782;55.904;13.396;2023-04-01T01:30:09;5.47;;;4.97;;
13421;SDS011;6782;55.904;13.396;2023-04-01T01:32:55;5.97;;;4.90;;
13421;SDS011;6782;55.904;13.396;2023-04-01T01:35:26;5.67;;;5.00;;
13421;SDS011;6782;55.904;13.396;2023-04-01T01:37:54;5.43;;;4.93;;
13421;SDS011;6782;55.904;13.396;2023-04-01T01:40:22;6.20;;;5.60;;
13421;SDS011;6782;55.904;13.396;2023-04-01T01:42:51;6.03;;;5.43;;
13421;SDS011;6782;55.904;13.396;2023-04-01T01:45:21;7.50;;;5.37;;
13421;SDS011;6782;55.904;13.396;2023-04-01T01:47:50;5.97;;;5.30;;
13421;SDS011;6782;55.904;13.396;2023-04-01T01:50:18;6.40;;;5.80;;
13421;SDS011;6782;55.904;13.396;2023-04-01T01:52:47;6.77;;;5.60;;
13421;SDS011;6782;55.904;13.396;2023-04-01T01:55:25;7.20;;;5.60;;
13421;SDS011;6782;55.904;13.396;2023-04-01T01:57:52;5.90;;;5.30;;
13421;SDS011;6782;55.904;13.396;2023-04-01T02:00:29;6.27;;;5.67;;
13421;SDS011;6782;55.904;13.396;2023-04-01T02:02:56;6.67;;;5.50;;
13421;SDS011;6782;55.904;13.396;2023-04-01T02:05:24;7.07;;;5.60;;
13421;SDS011;6782;55.904;13.396;2023-04-01T02:08:05;6.13;;;5.37;;
13421;SDS011;6782;55.904;13.396;2023-04-01T02:10:34;6.43;;;5.47;;
13421;SDS011;6782;55.904;13.396;2023-04-01T02:13:08;6.30;;;5.70;;
13421;SDS011;6782;55.904;13.396;2023-04-01T02:15:40;6.77;;;5.60;;
13421;SDS011;6782;55.904;13.396;2023-04-01T02:18:07;6.83;;;5.30;;
13421;SDS011;6782;55.904;13.396;2023-04-01T02:20:34;6.83;;;6.13;;
13421;SDS011;6782;55.904;13.396;2023-04-01T02:23:04;8.37;;;6.43;;
13421;SDS011;6782;55.904;13.396;2023-04-01T02:25:33;6.67;;;5.97;;
13421;SDS011;6782;55.904;13.396;2023-04-01T02:28:02;7.70;;;5.80;;
13421;SDS011;6782;55.904;13.396;2023-04-01T02:30:31;8.40;;;5.97;;
13421;SDS011;6782;55.904;13.396;2023-04-01T02:33:00;8.13;;;5.47;;
13421;SDS011;6782;55.904;13.396;2023-04-01T02:35:28;5.57;;;5.07;;
13421;SDS011;6782;55.904;13.396;2023-04-01T02:37:55;6.20;;;5.60;;
13421;SDS011;6782;55.904;13.396;2023-04-01T02:40:24;6.67;;;5.60;;
13421;SDS011;6782;55.904;13.396;2023-04-01T02:42:51;7.43;;;6.50;;
13421;SDS011;6782;55.904;13.396;2023-04-01T02:45:19;7.10;;;5.70;;
13421;SDS011;6782;55.904;13.396;2023-04-01T02:47:46;6.73;;;5.90;;
13421;SDS011;6782;55.904;13.396;2023-04-01T02:50:14;6.63;;;5.93;;
13421;SDS011;6782;55.904;13.396;2023-04-01T02:52:40;6.93;;;5.93;;
13421;SDS011;6782;55.904;13.396;2023-04-01T02:55:08;6.83;;;5.83;;
13421;SDS011;6782;55.904;13.396;2023-04-01T02:57:37;8.57;;;5.60;;
13421;SDS011;6782;55.904;13.396;2023-04-01T03:00:05;6.53;;;4.77;;
13421;SDS011;6782;55.904;13.396;2023-04-01T03:02:37;6.13;;;5.53;;
13421;SDS011;6782;55.904;13.396;2023-04-01T03:05:09;7.47;;;6.23;;
13421;SDS011;6782;55.904;13.396;2023-04-01T03:07:36;7.77;;;5.70;;
13421;SDS011;6782;55.904;13.396;2023-04-01T03:10:04;6.50;;;5.70;;
13421;SDS011;6782;55.904;13.396;2023-04-01T03:12:32;6.73;;;5.43;;
13421;SDS011;6782;55.904;13.396;2023-04-01T03:15:01;7.33;;;6.03;;
13421;SDS011;6782;55.904;13.396;2023-04-01T03:17:28;6.73;;;5.70;;
13421;SDS011;6782;55.904;13.396;2023-04-01T03:19:56;6.37;;;5.73;;
13421;SDS011;6782;55.904;13.396;2023-04-01T03:22:23;6.27;;;5.67;;
13421;SDS011;6782;55.904;13.396;2023-04-01T03:24:53;8.30;;;6.30;;
13421;SDS011;6782;55.904;13.396;2023-04-01T03:27:21;6.73;;;5.70;;
13421;SDS011;6782;55.904;13.396;2023-04-01T03:29:48;8.40;;;6.40;;
13421;SDS011;6782;55.904;13.396;2023-04-01T03:32:17;6.20;;;5.60;;
13421;SDS011;6782;55.904;13.396;2023-04-01T03:34:45;7.27;;;6.00;;
13421;SDS011;6782;55.904;13.396;2023-04-01T03:37:12;6.40;;;5.80;;
13421;SDS011;6782;55.904;13.396;2023-04-01T03:39:39;6.87;;;5.60;;
13421;SDS011;6782;55.904;13.396;2023-04-01T03:42:07;6.40;;;5.70;;
13421;SDS011;6782;55.904;13.396;2023-04-01T03:44:34;7.33;;;6.10;;
13421;SDS011;6782;55.904;13.396;2023-04-01T03:47:01;7.33;;;5.80;;
13421;SDS011;6782;55.904;13.396;2023-04-01T03:49:29;7.53;;;5.73;;
13421;SDS011;6782;55.904;13.396;2023-04-01T03:51:57;7.50;;;5.97;;
13421;SDS011;6782;55.904;13.396;2023-04-01T03:54:24;8.30;;;6.63;;
13421;SDS011;6782;55.904;13.396;2023-04-01T03:56:53;6.90;;;5.90;;
13421;SDS011;6782;55.904;13.396;2023-04-01T03:59:20;7.20;;;6.13;;
13421;SDS011;6782;55.904;13.396;2023-04-01T04:01:47;6.83;;;6.17;;
13421;SDS011;6782;55.904;13.396;2023-04-01T04:04:17;5.80;;;5.20;;
13421;SDS011;6782;55.904;13.396;2023-04-01T04:06:45;8.30;;;5.90;;
13421;SDS011;6782;55.904;13.396;2023-04-01T04:09:13;7.43;;;6.20;;
13421;SDS011;6782;55.904;13.396;2023-04-01T04:11:40;8.13;;;6.00;;
13421;SDS011;6782;55.904;13.396;2023-04-01T04:14:07;6.40;;;5.50;;
13421;SDS011;6782;55.904;13.396;2023-04-01T04:16:34;7.23;;;5.40;;
13421;SDS011;6782;55.904;13.396;2023-04-01T04:19:02;6.73;;;5.53;;
13421;SDS011;6782;55.904;13.396;2023-04-01T04:21:29;6.07;;;5.23;;
13421;SDS011;6782;55.904;13.396;2023-04-01T04:23:58;8.03;;;5.70;;
13421;SDS011;6782;55.904;13.396;2023-04-01T04:26:24;6.20;;;5.40;;
13421;SDS011;6782;55.904;13.396;2023-04-01T04:28:53;5.60;;;5.03;;
13421;SDS011;6782;55.904;13.396;2023-04-01T04:31:20;6.30;;;5.67;;
13421;SDS011;6782;55.904;13.396;2023-04-01T04:33:48;4.77;;;4.37;;
13421;SDS011;6782;55.904;13.396;2023-04-01T04:36:15;5.57;;;5.03;;
13421;SDS011;6782;55.904;13.396;2023-04-01T04:38:42;5.57;;;5.07;;
13421;SDS011;6782;55.904;13.396;2023-04-01T04:41:11;6.90;;;5.27;;
13421;SDS011;6782;55.904;13.396;2023-04-01T04:43:38;6.60;;;5.13;;
13421;SDS011;6782;55.904;13.396;2023-04-01T04:46:06;7.63;;;5.77;;
13421;SDS011;6782;55.904;13.396;2023-04-01T04:48:33;6.53;;;4.40;;
13421;SDS011;6782;55.904;13.396;2023-04-01T04:51:00;6.23;;;4.70;;
13421;SDS011;6782;55.904;13.396;2023-04-01T04:53:45;4.70;;;4.07;;
13421;SDS011;6782;55.904;13.396;2023-04-01T04:56:33;7.27;;;4.03;;
13421;SDS011;6782;55.904;13.396;2023-04-01T04:59:21;8.13;;;4.17;;
13421;SDS011;6782;55.904;13.396;2023-04-01T05:02:08;4.00;;;3.60;;
13421;SDS011;6782;55.904;13.396;2023-04-01T05:04:55;3.60;;;3.07;;
13421;SDS011;6782;55.904;13.396;2023-04-01T05:07:42;5.27;;;3.53;;
13421;SDS011;6782;55.904;13.396;2023-04-01T05:10:29;5.13;;;3.60;;
13421;SDS011;6782;55.904;13.396;2023-04-01T05:13:18;4.43;;;3.10;;
13421;SDS011;6782;55.904;13.396;2023-04-01T05:16:07;4.47;;;3.93;;
13421;SDS011;6782;55.904;13.396;2023-04-01T05:18:55;3.77;;;3.10;;
13421;SDS011;6782;55.904;13.396;2023-04-01T05:21:42;3.67;;;2.93;;
13421;SDS011;6782;55.904;13.396;2023-04-01T05:24:29;3.00;;;2.70;;
13421;SDS011;6782;55.904;13.396;2023-04-01T05:27:16;3.60;;;3.13;;
13421;SDS011;6782;55.904;13.396;2023-04-01T05:30:06;4.20;;;2.50;;
13421;SDS011;6782;55.904;13.396;2023-04-01T05:32:53;4.13;;;2.80;;
13421;SDS011;6782;55.904;13.396;2023-04-01T05:35:40;3.07;;;2.63;;
13421;SDS011;6782;55.904;13.396;2023-04-01T05:38:27;2.90;;;2.70;;
13421;SDS011;6782;55.904;13.396;2023-04-01T05:41:14;2.97;;;2.50;;
13421;SDS011;6782;55.904;13.396;2023-04-01T05:44:02;3.73;;;2.73;;
13421;SDS011;6782;55.904;13.396;2023-04-01T05:46:51;3.27;;;2.80;;
13421;SDS011;6782;55.904;13.396;2023-04-01T05:49:38;2.97;;;2.40;;
13421;SDS011;6782;55.904;13.396;2023-04-01T05:52:25;2.83;;;2.40;;
13421;SDS011;6782;55.904;13.396;2023-04-01T05:55:12;3.53;;;2.70;;
13421;SDS011;6782;55.904;13.396;2023-04-01T05:57:59;2.97;;;2.30;;
13421;SDS011;6782;55.904;13.396;2023-04-01T06:00:46;2.93;;;2.30;;
13421;SDS011;6782;55.904;13.396;2023-04-01T06:03:34;2.77;;;2.40;;
13421;SDS011;6782;55.904;13.396;2023-04-01T06:06:23;5.07;;;3.10;;
13421;SDS011;6782;55.904;13.396;2023-04-01T06:09:12;3.77;;;2.60;;
13421;SDS011;6782;55.904;13.396;2023-04-01T06:15:13;3.37;;;2.50;;
13421;SDS011;6782;55.904;13.396;2023-04-01T06:18:11;3.07;;;2.33;;
13421;SDS011;6782;55.904;13.396;2023-04-01T06:21:03;3.73;;;2.57;;
13421;SDS011;6782;55.904;13.396;2023-04-01T06:23:57;3.03;;;2.50;;
13421;SDS011;6782;55.904;13.396;2023-04-01T06:26:49;2.50;;;2.30;;
13421;SDS011;6782;55.904;13.396;2023-04-01T06:29:44;4.00;;;2.00;;
13421;SDS011;6782;55.904;13.396;2023-04-01T06:32:38;3.43;;;2.03;;
13421;SDS011;6782;55.904;13.396;2023-04-01T06:35:29;4.30;;;2.20;;
13421;SDS011;6782;55.904;13.396;2023-04-01T06:38:34;2.33;;;1.93;;
13421;SDS011;6782;55.904;13.396;2023-04-01T06:41:31;2.80;;;1.90;;
13421;SDS011;6782;55.904;13.396;2023-04-01T06:44:21;3.53;;;2.10;;
13421;SDS011;6782;55.904;13.396;2023-04-01T06:47:18;2.30;;;2.10;;
13421;SDS011;6782;55.904;13.396;2023-04-01T06:49:59;2.10;;;1.87;;
13421;SDS011;6782;55.904;13.396;2023-04-01T06:52:27;2.33;;;2.10;;
13421;SDS011;6782;55.904;13.396;2023-04-01T06:54:58;3.73;;;1.60;;
13421;SDS011;6782;55.904;13.396;2023-04-01T06:57:29;2.47;;;1.90;;
13421;SDS011;6782;55.904;13.396;2023-04-01T06:59:59;1.63;;;1.53;;
13421;SDS011;6782;55.904;13.396;2023-04-01T07:02:28;2.73;;;2.00;;
13421;SDS011;6782;55.904;13.396;2023-04-01T07:04:58;3.63;;;1.90;;
13421;SDS011;6782;55.904;13.396;2023-04-01T07:07:29;2.47;;;1.57;;
13421;SDS011;6782;55.904;13.396;2023-04-01T07:10:00;3.70;;;1.90;;
13421;SDS011;6782;55.904;13.396;2023-04-01T07:12:32;4.73;;;1.63;;
13421;SDS011;6782;55.904;13.396;2023-04-01T07:15:01;1.83;;;1.50;;
13421;SDS011;6782;55.904;13.396;2023-04-01T07:17:31;2.30;;;1.70;;
13421;SDS011;6782;55.904;13.396;2023-04-01T07:20:01;3.17;;;1.90;;
13421;SDS011;6782;55.904;13.396;2023-04-01T07:22:29;2.00;;;1.80;;
13421;SDS011;6782;55.904;13.396;2023-04-01T07:25:02;1.63;;;1.50;;
13421;SDS011;6782;55.904;13.396;2023-04-01T07:27:30;2.23;;;1.80;;
13421;SDS011;6782;55.904;13.396;2023-04-01T07:29:57;2.37;;;1.73;;
13421;SDS011;6782;55.904;13.396;2023-04-01T07:32:27;2.83;;;1.63;;
13421;SDS011;6782;55.904;13.396;2023-04-01T07:35:00;3.27;;;1.60;;
13421;SDS011;6782;55.904;13.396;2023-04-01T07:37:30;1.80;;;1.40;;
13421;SDS011;6782;55.904;13.396;2023-04-01T07:40:03;3.77;;;1.80;;
13421;SDS011;6782;55.904;13.396;2023-04-01T07:42:36;1.80;;;1.40;;
13421;SDS011;6782;55.904;13.396;2023-04-01T07:45:16;2.90;;;1.60;;
13421;SDS011;6782;55.904;13.396;2023-04-01T07:47:47;2.33;;;1.50;;
13421;SDS011;6782;55.904;13.396;2023-04-01T07:50:19;2.30;;;1.67;;
13421;SDS011;6782;55.904;13.396;2023-04-01T07:52:48;3.27;;;1.80;;
13421;SDS011;6782;55.904;13.396;2023-04-01T07:55:20;1.70;;;1.50;;
13421;SDS011;6782;55.904;13.396;2023-04-01T07:57:51;4.50;;;1.83;;
13421;SDS011;6782;55.904;13.396;2023-04-01T08:00:24;3.10;;;1.60;;
13421;SDS011;6782;55.904;13.396;2023-04-01T08:02:56;2.53;;;1.47;;
13421;SDS011;6782;55.904;13.396;2023-04-01T08:05:29;2.47;;;1.33;;
13421;SDS011;6782;55.904;13.396;2023-04-01T08:07:59;1.43;;;1.30;;
13421;SDS011;6782;55.904;13.396;2023-04-01T08:10:32;1.97;;;1.23;;
13421;SDS011;6782;55.904;13.396;2023-04-01T08:13:04;1.60;;;1.50;;
13421;SDS011;6782;55.904;13.396;2023-04-01T08:15:36;2.07;;;1.53;;
13421;SDS011;6782;55.904;13.396;2023-04-01T08:18:09;2.20;;;1.30;;
13421;SDS011;6782;55.904;13.396;2023-04-01T08:20:40;2.13;;;1.27;;
13421;SDS011;6782;55.904;13.396;2023-04-01T08:23:11;2.17;;;1.40;;
13421;SDS011;6782;55.904;13.396;2023-04-01T08:25:42;1.50;;;1.30;;
13421;SDS011;6782;55.904;13.396;2023-04-01T08:28:13;3.03;;;1.60;;
13421;SDS011;6782;55.904;13.396;2023-04-01T08:30:44;1.70;;;1.27;;
13421;SDS011;6782;55.904;13.396;2023-04-01T08:33:12;1.47;;;1.30;;
13421;SDS011;6782;55.904;13.396;2023-04-01T08:35:41;1.20;;;1.10;;
13421;SDS011;6782;55.904;13.396;2023-04-01T08:38:14;1.77;;;1.40;;
13421;SDS011;6782;55.904;13.396;2023-04-01T08:40:59;1.57;;;1.37;;
13421;SDS011;6782;55.904;13.396;2023-04-01T08:43:30;2.17;;;1.40;;
13421;SDS011;6782;55.904;13.396;2023-04-01T08:46:04;2.10;;;1.40;;
13421;SDS011;6782;55.904;13.396;2023-04-01T08:48:39;3.30;;;1.30;;
13421;SDS011;6782;55.904;13.396;2023-04-01T08:51:42;2.07;;;1.50;;
13421;SDS011;6782;55.904;13.396;2023-04-01T08:54:37;1.83;;;1.40;;
13421;SDS011;6782;55.904;13.396;2023-04-01T09:00:21;2.77;;;1.57;;
13421;SDS011;6782;55.904;13.396;2023-04-01T09:02:57;2.53;;;1.60;;
13421;SDS011;6782;55.904;13.396;2023-04-01T09:05:35;1.97;;;1.30;;
13421;SDS011;6782;55.904;13.396;2023-04-01T09:08:06;1.43;;;1.17;;
13421;SDS011;6782;55.904;13.396;2023-04-01T09:10:38;2.30;;;1.40;;
13421;SDS011;6782;55.904;13.396;2023-04-01T09:13:20;2.20;;;1.50;;
13421;SDS011;6782;55.904;13.396;2023-04-01T09:16:01;1.60;;;1.20;;
13421;SDS011;6782;55.904;13.396;2023-04-01T09:18:37;1.70;;;1.20;;
13421;SDS011;6782;55.904;13.396;2023-04-01T09:23:57;2.53;;;1.43;;
13421;SDS011;6782;55.904;13.396;2023-04-01T09:26:35;1.33;;;1.23;;
13421;SDS011;6782;55.904;13.396;2023-04-01T09:29:12;1.57;;;1.30;;
13421;SDS011;6782;55.904;13.396;2023-04-01T09:31:49;1.67;;;1.30;;
13421;SDS011;6782;55.904;13.396;2023-04-01T09:34:26;2.23;;;1.27;;
13421;SDS011;6782;55.904;13.396;2023-04-01T09:37:01;2.03;;;1.50;;
13421;SDS011;6782;55.904;13.396;2023-04-01T09:39:35;2.03;;;1.10;;
13421;SDS011;6782;55.904;13.396;2023-04-01T09:42:21;2.07;;;1.43;;
13421;SDS011;6782;55.904;13.396;2023-04-01T09:44:57;1.50;;;1.40;;
13421;SDS011;6782;55.904;13.396;2023-04-01T09:47:38;1.77;;;1.20;;
13421;SDS011;6782;55.904;13.396;2023-04-01T09:50:17;1.50;;;1.40;;
13421;SDS011;6782;55.904;13.396;2023-04-01T09:52:57;1.57;;;1.27;;
13421;SDS011;6782;55.904;13.396;2023-04-01T09:55:39;1.40;;;1.30;;
13421;SDS011;6782;55.904;13.396;2023-04-01T10:01:20;1.57;;;1.30;;
13421;SDS011;6782;55.904;13.396;2023-04-01T10:04:08;1.20;;;1.10;;
13421;SDS011;6782;55.904;13.396;2023-04-01T10:06:47;1.60;;;1.20;;
13421;SDS011;6782;55.904;13.396;2023-04-01T10:09:32;1.37;;;1.10;;
13421;SDS011;6782;55.904;13.396;2023-04-01T10:17:46;1.80;;;1.40;;
13421;SDS011;6782;55.904;13.396;2023-04-01T10:26:00;2.00;;;1.43;;
13421;SDS011;6782;55.904;13.396;2023-04-01T10:31:29;1.97;;;1.40;;
13421;SDS011;6782;55.904;13.396;2023-04-01T10:36:48;1.70;;;1.20;;
13421;SDS011;6782;55.904;13.396;2023-04-01T10:39:20;3.50;;;1.40;;
13421;SDS011;6782;55.904;13.396;2023-04-01T10:42:08;2.43;;;1.40;;
13421;SDS011;6782;55.904;13.396;2023-04-01T11:01:52;2.30;;;1.20;;
13421;SDS011;6782;55.904;13.396;2023-04-01T11:07:22;0.90;;;0.90;;
13421;SDS011;6782;55.904;13.396;2023-04-01T11:10:06;3.17;;;1.00;;
13421;SDS011;6782;55.904;13.396;2023-04-01T11:23:45;2.27;;;1.20;;
13421;SDS011;6782;55.904;13.396;2023-04-01T11:26:16;2.40;;;1.77;;
13421;SDS011;6782;55.904;13.396;2023-04-01T11:31:37;1.63;;;1.30;;
13421;SDS011;6782;55.904;13.396;2023-04-01T11:34:11;1.93;;;1.27;;
13421;SDS011;6782;55.904;13.396;2023-04-01T11:36:43;1.20;;;1.10;;
13421;SDS011;6782;55.904;13.396;2023-04-01T11:41:59;1.30;;;0.97;;
13421;SDS011;6782;55.904;13.396;2023-04-01T11:44:29;1.13;;;1.03;;
13421;SDS011;6782;55.904;13.396;2023-04-01T11:47:02;1.93;;;1.10;;
13421;SDS011;6782;55.904;13.396;2023-04-01T11:49:36;1.87;;;1.37;;
13421;SDS011;6782;55.904;13.396;2023-04-01T11:52:13;1.53;;;1.20;;
13421;SDS011;6782;55.904;13.396;2023-04-01T11:54:46;1.40;;;1.03;;
13421;SDS011;6782;55.904;13.396;2023-04-01T11:57:23;1.30;;;1.07;;
13421;SDS011;6782;55.904;13.396;2023-04-01T11:59:57;1.30;;;1.20;;
13421;SDS011;6782;55.904;13.396;2023-04-01T12:02:29;1.10;;;1.00;;
13421;SDS011;6782;55.904;13.396;2023-04-01T12:07:54;1.67;;;1.10;;
13421;SDS011;6782;55.904;13.396;2023-04-01T12:10:26;1.67;;;0.93;;
13421;SDS011;6782;55.904;13.396;2023-04-01T12:12:57;1.90;;;1.00;;
13421;SDS011;6782;55.904;13.396;2023-04-01T12:15:27;1.40;;;1.10;;
13421;SDS011;6782;55.904;13.396;2023-04-01T12:17:56;1.40;;;1.10;;
13421;SDS011;6782;55.904;13.396;2023-04-01T12:20:36;1.30;;;1.20;;
13421;SDS011;6782;55.904;13.396;2023-04-01T12:23:09;2.03;;;1.00;;
13421;SDS011;6782;55.904;13.396;2023-04-01T12:25:52;0.87;;;0.87;;
13421;SDS011;6782;55.904;13.396;2023-04-01T12:28:29;1.00;;;1.00;;
13421;SDS011;6782;55.904;13.396;2023-04-01T12:31:07;2.20;;;1.00;;
13421;SDS011;6782;55.904;13.396;2023-04-01T12:33:46;1.30;;;1.17;;
13421;SDS011;6782;55.904;13.396;2023-04-01T12:36:19;1.93;;;1.20;;
13421;SDS011;6782;55.904;13.396;2023-04-01T12:38:57;2.03;;;1.10;;
13421;SDS011;6782;55.904;13.396;2023-04-01T12:41:32;1.47;;;1.23;;
13421;SDS011;6782;55.904;13.396;2023-04-01T12:44:10;2.07;;;1.00;;
13421;SDS011;6782;55.904;13.396;2023-04-01T12:46:42;1.20;;;0.97;;
13421;SDS011;6782;55.904;13.396;2023-04-01T12:49:21;2.60;;;1.30;;
13421;SDS011;6782;55.904;13.396;2023-04-01T12:51:58;1.23;;;1.10;;
13421;SDS011;6782;55.904;13.396;2023-04-01T12:57:31;1.73;;;1.30;;
13421;SDS011;6782;55.904;13.396;2023-04-01T13:00:10;1.50;;;1.00;;
13421;SDS011;6782;55.904;13.396;2023-04-01T13:02:40;1.20;;;1.10;;
13421;SDS011;6782;55.904;13.396;2023-04-01T13:07:58;1.50;;;1.00;;
13421;SDS011;6782;55.904;13.396;2023-04-01T13:10:36;1.30;;;1.00;;
13421;SDS011;6782;55.904;13.396;2023-04-01T13:15:53;1.50;;;1.10;;
13421;SDS011;6782;55.904;13.396;2023-04-01T13:18:24;1.23;;;0.90;;
13421;SDS011;6782;55.904;13.396;2023-04-01T13:20:57;1.53;;;1.30;;
13421;SDS011;6782;55.904;13.396;2023-04-01T13:23:33;1.13;;;1.00;;
13421;SDS011;6782;55.904;13.396;2023-04-01T13:26:03;2.57;;;1.00;;
13421;SDS011;6782;55.904;13.396;2023-04-01T13:28:33;2.10;;;1.10;;
13421;SDS011;6782;55.904;13.396;2023-04-01T13:31:07;2.07;;;1.20;;
13421;SDS011;6782;55.904;13.396;2023-04-01T13:33:38;1.63;;;1.30;;
13421;SDS011;6782;55.904;13.396;2023-04-01T13:36:16;1.37;;;0.90;;
13421;SDS011;6782;55.904;13.396;2023-04-01T13:38:50;2.20;;;1.23;;
13421;SDS011;6782;55.904;13.396;2023-04-01T13:41:26;1.43;;;1.33;;
13421;SDS011;6782;55.904;13.396;2023-04-01T13:43:58;1.60;;;1.20;;
13421;SDS011;6782;55.904;13.396;2023-04-01T13:46:38;1.67;;;1.30;;
13421;SDS011;6782;55.904;13.396;2023-04-01T13:49:20;2.53;;;1.30;;
13421;SDS011;6782;55.904;13.396;2023-04-01T13:51:52;1.83;;;1.10;;
13421;SDS011;6782;55.904;13.396;2023-04-01T13:54:36;1.37;;;1.20;;
13421;SDS011;6782;55.904;13.396;2023-04-01T13:57:14;2.03;;;1.20;;
13421;SDS011;6782;55.904;13.396;2023-04-01T13:59:55;1.57;;;1.13;;
13421;SDS011;6782;55.904;13.396;2023-04-01T14:02:46;2.40;;;1.40;;
13421;SDS011;6782;55.904;13.396;2023-04-01T14:08:11;1.10;;;1.00;;
13421;SDS011;6782;55.904;13.396;2023-04-01T14:10:42;1.20;;;1.10;;
13421;SDS011;6782;55.904;13.396;2023-04-01T14:13:12;1.77;;;1.03;;
13421;SDS011;6782;55.904;13.396;2023-04-01T14:18:45;2.03;;;1.20;;
13421;SDS011;6782;55.904;13.396;2023-04-01T14:21:17;1.83;;;1.20;;
13421;SDS011;6782;55.904;13.396;2023-04-01T14:23:55;1.53;;;1.00;;
13421;SDS011;6782;55.904;13.396;2023-04-01T14:26:50;1.03;;;0.90;;
13421;SDS011;6782;55.904;13.396;2023-04-01T14:29:24;1.93;;;0.93;;
13421;SDS011;6782;55.904;13.396;2023-04-01T14:31:56;2.33;;;1.43;;
13421;SDS011;6782;55.904;13.396;2023-04-01T14:34:31;1.30;;;1.20;;
13421;SDS011;6782;55.904;13.396;2023-04-01T14:37:14;1.40;;;1.30;;
13421;SDS011;6782;55.904;13.396;2023-04-01T14:39:59;1.73;;;1.23;;
13421;SDS011;6782;55.904;13.396;2023-04-01T14:42:55;2.07;;;1.00;;
13421;SDS011;6782;55.904;13.396;2023-04-01T14:45:30;1.67;;;1.20;;
13421;SDS011;6782;55.904;13.396;2023-04-01T14:48:05;1.37;;;1.20;;
13421;SDS011;6782;55.904;13.396;2023-04-01T14:50:41;1.20;;;1.10;;
13421;SDS011;6782;55.904;13.396;2023-04-01T14:53:11;1.33;;;1.10;;
13421;SDS011;6782;55.904;13.396;2023-04-01T14:55:47;2.13;;;1.43;;
13421;SDS011;6782;55.904;13.396;2023-04-01T14:58:16;1.40;;;1.10;;
13421;SDS011;6782;55.904;13.396;2023-04-01T15:00:58;1.30;;;1.20;;
13421;SDS011;6782;55.904;13.396;2023-04-01T15:03:28;1.60;;;1.27;;
13421;SDS011;6782;55.904;13.396;2023-04-01T15:06:07;1.33;;;0.93;;
13421;SDS011;6782;55.904;13.396;2023-04-01T15:08:48;2.63;;;1.10;;
13421;SDS011;6782;55.904;13.396;2023-04-01T15:11:24;1.97;;;1.40;;
13421;SDS011;6782;55.904;13.396;2023-04-01T15:14:01;1.13;;;1.03;;
13421;SDS011;6782;55.904;13.396;2023-04-01T15:16:34;1.87;;;1.37;;
13421;SDS011;6782;55.904;13.396;2023-04-01T15:19:10;1.87;;;1.30;;
13421;SDS011;6782;55.904;13.396;2023-04-01T15:21:53;2.10;;;1.30;;
13421;SDS011;6782;55.904;13.396;2023-04-01T15:24:24;1.73;;;1.30;;
13421;SDS011;6782;55.904;13.396;2023-04-01T15:26:56;1.40;;;1.20;;
13421;SDS011;6782;55.904;13.396;2023-04-01T15:29:36;1.70;;;1.40;;
13421;SDS011;6782;55.904;13.396;2023-04-01T15:32:08;2.13;;;1.40;;
13421;SDS011;6782;55.904;13.396;2023-04-01T15:34:42;2.10;;;1.50;;
13421;SDS011;6782;55.904;13.396;2023-04-01T15:37:16;3.10;;;1.50;;
13421;SDS011;6782;55.904;13.396;2023-04-01T15:39:50;1.53;;;1.43;;
13421;SDS011;6782;55.904;13.396;2023-04-01T15:42:24;1.73;;;1.33;;
13421;SDS011;6782;55.904;13.396;2023-04-01T15:44:58;2.53;;;1.60;;
13421;SDS011;6782;55.904;13.396;2023-04-01T15:47:38;1.93;;;1.30;;
13421;SDS011;6782;55.904;13.396;2023-04-01T15:53:09;1.87;;;1.50;;
13421;SDS011;6782;55.904;13.396;2023-04-01T15:55:41;1.53;;;1.30;;
13421;SDS011;6782;55.904;13.396;2023-04-01T15:58:20;2.73;;;1.47;;
13421;SDS011;6782;55.904;13.396;2023-04-01T16:00:53;4.60;;;1.43;;
13421;SDS011;6782;55.904;13.396;2023-04-01T16:03:26;1.90;;;1.40;;
13421;SDS011;6782;55.904;13.396;2023-04-01T16:06:09;2.20;;;1.40;;
13421;SDS011;6782;55.904;13.396;2023-04-01T16:08:45;2.10;;;1.70;;
13421;SDS011;6782;55.904;13.396;2023-04-01T16:11:18;1.80;;;1.43;;
13421;SDS011;6782;55.904;13.396;2023-04-01T16:13:51;2.67;;;1.60;;
13421;SDS011;6782;55.904;13.396;2023-04-01T16:16:46;1.70;;;1.57;;
13421;SDS011;6782;55.904;13.396;2023-04-01T16:19:49;1.50;;;1.17;;
13421;SDS011;6782;55.904;13.396;2023-04-01T16:22:38;1.30;;;1.10;;
13421;SDS011;6782;55.904;13.396;2023-04-01T16:25:31;2.63;;;1.80;;
13421;SDS011;6782;55.904;13.396;2023-04-01T16:28:22;2.80;;;2.60;;
13421;SDS011;6782;55.904;13.396;2023-04-01T16:31:12;2.53;;;2.30;;
13421;SDS011;6782;55.904;13.396;2023-04-01T16:34:03;9.97;;;9.10;;
13421;SDS011;6782;55.904;13.396;2023-04-01T16:36:54;5.57;;;5.07;;
13421;SDS011;6782;55.904;13.396;2023-04-01T16:39:43;3.53;;;2.97;;
13421;SDS011;6782;55.904;13.396;2023-04-01T16:42:26;1.50;;;1.30;;
13421;SDS011;6782;55.904;13.396;2023-04-01T16:44:54;1.20;;;1.10;;
13421;SDS011;6782;55.904;13.396;2023-04-01T16:47:22;1.20;;;1.10;;
13421;SDS011;6782;55.904;13.396;2023-04-01T16:49:55;2.17;;;1.33;;
13421;SDS011;6782;55.904;13.396;2023-04-01T16:52:30;1.83;;;1.20;;
13421;SDS011;6782;55.904;13.396;2023-04-01T16:54:58;1.40;;;1.20;;
13421;SDS011;6782;55.904;13.396;2023-04-01T16:57:30;2.63;;;1.50;;
13421;SDS011;6782;55.904;13.396;2023-04-01T16:59:59;1.10;;;1.00;;
13421;SDS011;6782;55.904;13.396;2023-04-01T17:02:30;1.47;;;1.20;;